^^
Station Historical Data
Daily Summary for September 14, 2017 Units:  English    Metric   Both
« Previous Day
Next Day »
Daily Weekly Monthly Yearly Custom
  High: Low: Average:
Temperature: 80.3 °F 67.4 °F 71.5 °F
Dew Point: 69.9 °F 66.5 °F 67.8 °F
Humidity: 97% 65% 89%
Wind Speed: 5.0mph 0.0mph 0.5mph
Wind Gust: 8.0mph - -
Wind- - SSW
Pressure: 29.94 in 29.85 in -
Precipitation: 0.02 in    
Historical Graphs
 
 
Tabular Data for September 14, 2017
Time Temperature Dew Point Pressure Wind Wind Speed Wind Gust Humidity Rainfall Rate (Hourly) Conditions
00:00 69.6 °F 68.1 °F 29.88 in Calm   3.0 mph 95% 0.00 in OVC
00:15 69.7 °F 68.2 °F 29.88 in Calm   2.0 mph 95% 0.00 in OVC
00:30 69.6 °F 68.1 °F 29.87 in Calm   2.0 mph 95% 0.00 in OVC
00:45 69.4 °F 67.9 °F 29.87 in SSE 1.0 mph 4.0 mph 95% 0.00 in OVC
01:00 69.6 °F 68.4 °F 29.87 in SSW 2.0 mph 5.0 mph 96% 0.00 in OVC
01:15 69.5 °F 68.0 °F 29.87 in Calm   4.0 mph 95% 0.00 in BKN
01:30 69.3 °F 68.1 °F 29.87 in Calm   2.0 mph 96% 0.00 in BKN
01:45 69.4 °F 68.2 °F 29.87 in Calm   5.0 mph 96% 0.00 in BKN
02:00 69.5 °F 68.3 °F 29.87 in Calm   3.0 mph 96% 0.00 in BKN
02:15 69.2 °F 68.0 °F 29.86 in Calm     96% 0.00 in BKN
02:30 68.5 °F 67.4 °F 29.86 in Calm     96% 0.00 in BKN
02:45 68.1 °F 66.9 °F 29.86 in Calm     96% 0.00 in BKN
03:00 67.7 °F 66.5 °F 29.86 in Calm     96% 0.00 in BKN
03:15 68.1 °F 67.3 °F 29.86 in Calm   1.0 mph 97% 0.00 in BKN
03:30 68.4 °F 67.5 °F 29.86 in Calm   1.0 mph 97% 0.00 in BKN
03:45 68.3 °F 67.1 °F 29.86 in Calm   2.0 mph 96% 0.00 in BKN
04:00 68.0 °F 66.8 °F 29.86 in Calm     96% 0.00 in BKN
04:15 68.1 °F 67.2 °F 29.86 in Calm     97% 0.00 in BKN
04:30 68.1 °F 67.2 °F 29.86 in Calm     97% 0.00 in BKN
04:45 68.2 °F 67.3 °F 29.86 in Calm   1.0 mph 97% 0.00 in BKN
05:00 68.1 °F 67.2 °F 29.87 in Calm   2.0 mph 97% 0.00 in BKN
05:15 68.1 °F 67.2 °F 29.87 in Calm   2.0 mph 97% 0.00 in BKN
05:30 68.3 °F 67.4 °F 29.87 in SSW 1.0 mph 3.0 mph 97% 0.00 in BKN
05:45 68.0 °F 67.1 °F 29.87 in Calm   2.0 mph 97% 0.00 in BKN
06:00 67.7 °F 66.8 °F 29.87 in Calm     97% 0.00 in BKN
06:15 67.4 °F 66.5 °F 29.88 in Calm     97% 0.00 in CLR
06:30 67.4 °F 66.5 °F 29.88 in Calm     97% 0.00 in CLR
06:45 67.6 °F 66.7 °F 29.89 in Calm   1.0 mph 97% 0.00 in CLR
07:00 67.8 °F 66.9 °F 29.89 in Calm   2.0 mph 97% 0.00 in CLR
07:15 67.9 °F 67.0 °F 29.89 in Calm   2.0 mph 97% 0.00 in CLR
07:30 68.0 °F 67.1 °F 29.89 in Calm   2.0 mph 97% 0.00 in CLR
07:45 68.1 °F 67.2 °F 29.89 in Calm   2.0 mph 97% 0.00 in CLR
08:00 68.5 °F 67.6 °F 29.89 in SW 2.0 mph 5.0 mph 97% 0.00 in CLR
08:15 69.0 °F 68.1 °F 29.89 in SSW 1.0 mph 5.0 mph 97% 0.00 in BKN
08:30 69.2 °F 68.0 °F 29.89 in Calm   6.0 mph 96% 0.00 in BKN
08:45 69.3 °F 68.1 °F 29.89 in Calm   5.0 mph 96% 0.00 in BKN
09:00 69.5 °F 68.0 °F 29.89 in Calm   4.0 mph 95% 0.00 in BKN
09:15 69.9 °F 68.1 °F 29.90 in SSW 1.0 mph 4.0 mph 94% 0.00 in BKN
09:30 70.4 °F 68.3 °F 29.90 in SSW 1.0 mph 4.0 mph 93% 0.00 in BKN
09:45 70.6 °F 68.2 °F 29.90 in SW 2.0 mph 5.0 mph 92% 0.00 in BKN
10:00 70.7 °F 67.9 °F 29.91 in Calm   4.0 mph 91% 0.00 in BKN
10:15 70.8 °F 68.0 °F 29.90 in Calm   2.0 mph 91% 0.00 in BKN
10:30 71.2 °F 68.4 °F 29.90 in Calm   1.0 mph 91% 0.00 in BKN
10:45 71.9 °F 69.2 °F 29.90 in SW 1.0 mph 3.0 mph 91% 0.00 in BKN
11:00 72.6 °F 68.5 °F 29.90 in SW 1.0 mph 5.0 mph 87% 0.00 in BKN
11:15 73.5 °F 69.0 °F 29.90 in SSW 1.0 mph 6.0 mph 86% 0.00 in -RA
11:30 73.7 °F 68.9 °F 29.90 in WSW 2.0 mph 7.0 mph 85% 0.00 in -RA
11:45 73.7 °F 68.2 °F 29.91 in SSW 5.0 mph 7.0 mph 83% 0.00 in -RA
12:00 74.1 °F 69.3 °F 29.90 in SSW 1.0 mph 7.0 mph 85% 0.00 in -RA
12:15 74.6 °F 69.1 °F 29.89 in SW 1.0 mph 6.0 mph 83% 0.00 in BKN
12:30 74.3 °F 68.8 °F 29.90 in SSW 1.0 mph 6.0 mph 83% 0.00 in BKN
12:45 73.2 °F 69.1 °F 29.88 in Calm   2.0 mph 87% 0.01 in BKN
13:00 73.6 °F 69.5 °F 29.88 in Calm   2.0 mph 87% 0.00 in BKN
13:15 74.3 °F 69.5 °F 29.88 in Calm   3.0 mph 85% 0.00 in -RA
13:30 75.1 °F 68.5 °F 29.88 in WSW 2.0 mph 4.0 mph 80% 0.00 in -RA
13:45 77.0 °F 69.2 °F 29.87 in SSW 3.0 mph 6.0 mph 77% 0.00 in -RA
14:00 78.1 °F 66.7 °F 29.87 in SSW 5.0 mph 8.0 mph 68% 0.00 in -RA
14:15 78.4 °F 67.9 °F 29.87 in SSW 3.0 mph 8.0 mph 70% 0.00 in SCT
14:30 79.0 °F 67.9 °F 29.86 in SW 3.0 mph 7.0 mph 69% 0.00 in SCT
14:45 78.9 °F 67.4 °F 29.86 in SW 3.0 mph 8.0 mph 68% 0.00 in SCT
15:00 80.3 °F 67.4 °F 29.86 in SSW 2.0 mph 6.0 mph 65% 0.00 in SCT
15:15 80.3 °F 67.9 °F 29.86 in South 1.0 mph 7.0 mph 66% 0.00 in -RA
15:30 78.8 °F 66.9 °F 29.86 in SSW 1.0 mph 5.0 mph 67% 0.00 in -RA
15:45 78.3 °F 67.3 °F 29.85 in Calm   3.0 mph 69% 0.00 in -RA
16:00 78.3 °F 67.7 °F 29.85 in Calm   5.0 mph 70% 0.00 in -RA
16:15 77.2 °F 67.5 °F 29.85 in South 1.0 mph 6.0 mph 72% 0.00 in -RA
16:30 75.9 °F 67.8 °F 29.85 in Calm   2.0 mph 76% 0.00 in -RA
16:45 74.5 °F 68.3 °F 29.85 in NNE 1.0 mph 2.0 mph 81% 0.01 in -RA
17:00 72.9 °F 68.5 °F 29.86 in Calm   3.0 mph 86% 0.00 in -RA
17:15 73.9 °F 68.8 °F 29.86 in Calm   6.0 mph 84% 0.00 in -RA
17:30 74.2 °F 69.0 °F 29.86 in Calm   1.0 mph 84% 0.00 in -RA
18:00 74.4 °F 69.6 °F 29.86 in Calm     85% 0.00 in -RA
18:15 74.4 °F 69.9 °F 29.86 in Calm     86% 0.00 in -RA
18:30 73.5 °F 69.7 °F 29.87 in Calm     88% 0.00 in -RA
18:45 73.2 °F 69.4 °F 29.87 in Calm     88% 0.00 in -RA
19:00 72.9 °F 68.1 °F 29.88 in Calm   3.0 mph 85% 0.00 in -RA
19:15 73.1 °F 68.0 °F 29.88 in Calm   1.0 mph 84% 0.00 in SCT
19:30 72.5 °F 68.1 °F 29.89 in Calm     86% 0.00 in SCT
19:45 71.7 °F 67.6 °F 29.90 in Calm     87% 0.00 in SCT
20:00 71.5 °F 67.4 °F 29.90 in Calm     87% 0.00 in SCT
20:15 71.8 °F 67.4 °F 29.91 in Calm     86% 0.00 in SCT
20:30 71.3 °F 67.6 °F 29.91 in Calm     88% 0.00 in SCT
20:45 70.8 °F 67.7 °F 29.91 in Calm     90% 0.00 in SCT
21:00 70.5 °F 67.4 °F 29.91 in Calm     90% 0.00 in SCT
21:15 70.6 °F 67.2 °F 29.91 in Calm     89% 0.00 in BKN
21:30 70.5 °F 67.1 °F 29.92 in Calm     89% 0.00 in BKN
21:45 70.2 °F 67.1 °F 29.92 in Calm     90% 0.00 in BKN
22:00 69.9 °F 67.2 °F 29.92 in Calm     91% 0.00 in BKN
22:15 69.6 °F 66.9 °F 29.93 in Calm     91% 0.00 in BKN
22:30 69.6 °F 66.9 °F 29.93 in Calm     91% 0.00 in BKN
22:45 69.9 °F 66.8 °F 29.93 in Calm   1.0 mph 90% 0.00 in BKN
23:00 69.5 °F 66.8 °F 29.94 in Calm     91% 0.00 in BKN
23:30 69.2 °F 66.8 °F 29.94 in Calm     92% 0.00 in BKN
23:45 68.9 °F 66.8 °F 29.94 in Calm     93% 0.00 in BKN
TarryTown NY Weather
Compliments of Weather Underground - 1.5 mb